createdAt,value
2022-09-17T00:00:37.610Z,11.52
2022-09-17T00:02:49.737Z,11.52
2022-09-17T00:05:03.365Z,11.52
2022-09-17T00:07:16.035Z,11.52
2022-09-17T00:09:28.155Z,11.54
2022-09-17T00:11:40.197Z,11.54
2022-09-17T00:13:51.467Z,11.56
2022-09-17T00:16:03.483Z,11.59
2022-09-17T00:18:15.504Z,11.57
2022-09-17T00:20:27.611Z,11.57
2022-09-17T00:22:40.675Z,11.59
2022-09-17T00:24:52.760Z,11.57
2022-09-17T00:27:04.824Z,11.59
2022-09-17T00:29:16.895Z,11.57
2022-09-17T00:31:30.046Z,11.59
2022-09-17T00:33:42.079Z,11.62
2022-09-17T00:35:55.656Z,11.65
2022-09-17T00:38:07.733Z,11.65
2022-09-17T00:40:21.512Z,11.68
2022-09-17T00:42:33.420Z,11.67
2022-09-17T00:44:45.479Z,11.67
2022-09-17T00:46:57.607Z,11.68
2022-09-17T00:49:10.654Z,11.68
2022-09-17T00:51:22.727Z,11.70
2022-09-17T00:53:34.828Z,11.70
2022-09-17T00:55:47.187Z,11.70
2022-09-17T00:57:59.260Z,11.70
2022-09-17T01:00:11.340Z,11.70
2022-09-17T01:02:23.504Z,11.70
2022-09-17T01:04:35.548Z,11.72
2022-09-17T01:06:47.625Z,11.75
2022-09-17T01:08:59.686Z,11.77
2022-09-17T01:11:11.774Z,11.77
2022-09-17T01:13:23.927Z,11.75
2022-09-17T01:15:35.969Z,11.77
2022-09-17T01:17:48.024Z,11.78
2022-09-17T01:20:01.632Z,11.77
2022-09-17T01:22:13.688Z,11.77
2022-09-17T01:24:27.265Z,11.77
2022-09-17T01:26:39.368Z,11.78
2022-09-17T01:28:51.428Z,11.78
2022-09-17T01:31:05.094Z,11.75
2022-09-17T01:33:17.089Z,11.78
2022-09-17T01:35:29.161Z,11.77
2022-09-17T01:37:41.273Z,11.78
2022-09-17T01:39:53.358Z,11.78
2022-09-17T01:42:05.413Z,11.82
2022-09-17T01:44:17.485Z,11.80
2022-09-17T01:46:29.659Z,11.82
2022-09-17T01:48:43.255Z,11.83
2022-09-17T01:50:56.249Z,11.83
2022-09-17T01:53:08.335Z,11.86
2022-09-17T01:55:20.436Z,11.85
2022-09-17T01:57:34.011Z,11.87
2022-09-17T01:59:46.107Z,11.90
2022-09-17T02:01:59.236Z,11.93
2022-09-17T02:04:11.252Z,11.93
2022-09-17T02:06:23.340Z,11.93
2022-09-17T02:08:35.410Z,11.96
2022-09-17T02:10:47.514Z,11.96
2022-09-17T02:12:59.570Z,11.96
2022-09-17T02:15:11.662Z,11.96
2022-09-17T02:17:23.741Z,11.96
2022-09-17T02:19:36.831Z,11.96
2022-09-17T02:21:50.854Z,11.97
2022-09-17T02:24:01.977Z,11.99
2022-09-17T02:26:15.561Z,11.99
2022-09-17T02:28:27.653Z,12.01
2022-09-17T02:30:39.732Z,11.99
2022-09-17T02:32:51.837Z,12.02
2022-09-17T02:35:04.890Z,12.02
2022-09-17T02:37:16.989Z,12.02
2022-09-17T02:39:30.051Z,12.05
2022-09-17T02:41:42.120Z,12.06
2022-09-17T02:43:55.732Z,12.05
2022-09-17T02:46:07.838Z,12.06
2022-09-17T02:48:19.878Z,12.06
2022-09-17T02:50:31.956Z,12.05
2022-09-17T02:52:44.037Z,12.06
2022-09-17T02:54:57.631Z,12.05
2022-09-17T02:57:09.700Z,12.05
2022-09-17T02:59:21.776Z,12.05
2022-09-17T03:01:33.908Z,12.05
2022-09-17T03:03:46.431Z,12.05
2022-09-17T03:05:58.048Z,12.06
2022-09-17T03:08:11.090Z,12.08
2022-09-17T03:10:23.172Z,12.06
2022-09-17T03:12:35.258Z,12.08
2022-09-17T03:14:47.341Z,12.08
2022-09-17T03:16:59.441Z,12.09
2022-09-17T03:19:12.484Z,12.08
2022-09-17T03:21:24.566Z,12.11
2022-09-17T03:23:36.945Z,12.09
2022-09-17T03:25:50.018Z,12.12
2022-09-17T03:28:02.133Z,12.12
2022-09-17T03:30:14.180Z,12.13
2022-09-17T03:32:26.271Z,12.12
2022-09-17T03:34:38.364Z,12.13
2022-09-17T03:36:50.433Z,12.15
2022-09-17T03:39:02.537Z,12.16
2022-09-17T03:41:14.594Z,12.15
2022-09-17T03:43:26.674Z,12.13
2022-09-17T03:45:38.762Z,12.13
2022-09-17T03:47:50.848Z,12.12
2022-09-17T03:50:03.960Z,12.11
2022-09-17T03:52:16.001Z,12.12
2022-09-17T03:54:28.075Z,12.12
2022-09-17T03:56:40.152Z,12.09
2022-09-17T03:58:52.256Z,12.11
2022-09-17T04:01:04.401Z,12.05
2022-09-17T04:03:17.938Z,12.01
2022-09-17T04:05:30.059Z,11.99
2022-09-17T04:07:42.130Z,11.97
2022-09-17T04:09:54.212Z,11.99
2022-09-17T04:12:06.333Z,11.96
2022-09-17T04:14:18.384Z,11.96
2022-09-17T04:16:30.526Z,11.99
2022-09-17T04:18:44.054Z,11.99
2022-09-17T04:20:56.121Z,12.01
2022-09-17T04:23:08.223Z,12.02
2022-09-17T04:25:20.284Z,12.01
2022-09-17T04:27:32.365Z,12.02
2022-09-17T04:29:44.447Z,12.04
2022-09-17T04:31:56.534Z,12.05
2022-09-17T04:34:10.137Z,12.08
2022-09-17T04:36:22.205Z,12.11
2022-09-17T04:38:34.278Z,12.12
2022-09-17T04:40:46.375Z,12.12
2022-09-17T04:42:59.425Z,12.13
2022-09-17T04:45:12.544Z,12.13
2022-09-17T04:47:24.599Z,12.16
2022-09-17T04:49:39.249Z,12.19
2022-09-17T04:51:53.762Z,12.20
2022-09-17T04:54:05.845Z,12.19
2022-09-17T04:56:19.467Z,12.19
2022-09-17T04:58:33.024Z,12.20
2022-09-17T05:00:47.535Z,12.21
2022-09-17T05:03:01.257Z,12.20
2022-09-17T05:05:12.283Z,12.20
2022-09-17T05:07:45.392Z,12.21
2022-09-17T05:09:36.447Z,12.27
2022-09-17T05:11:48.520Z,12.31
2022-09-17T05:14:00.615Z,12.34
2022-09-17T05:16:16.248Z,12.39
2022-09-17T05:18:28.311Z,12.44
2022-09-17T05:20:42.857Z,12.41
2022-09-17T05:22:56.468Z,12.42
2022-09-17T05:25:14.514Z,12.38
2022-09-17T05:27:29.105Z,12.33
2022-09-17T05:29:41.226Z,12.33
2022-09-17T05:31:56.818Z,12.31
2022-09-17T05:34:12.388Z,12.30
2022-09-17T05:36:24.482Z,12.30
2022-09-17T05:38:42.569Z,12.31
2022-09-17T05:40:56.206Z,12.31
2022-09-17T05:43:11.738Z,12.33
2022-09-17T05:45:29.828Z,12.37
2022-09-17T05:47:47.930Z,12.41
2022-09-17T05:50:00.035Z,12.44
2022-09-17T05:52:18.965Z,12.44
2022-09-17T05:54:37.019Z,12.44
2022-09-17T05:56:53.756Z,12.46
2022-09-17T05:59:05.888Z,12.44
2022-09-17T06:01:19.447Z,12.44
2022-09-17T06:03:31.589Z,12.42
2022-09-17T06:05:45.151Z,12.39
2022-09-17T06:07:57.256Z,12.39
2022-09-17T06:10:10.826Z,12.39
2022-09-17T06:12:24.422Z,12.45
2022-09-17T06:14:37.529Z,12.49
2022-09-17T06:16:51.109Z,12.57
2022-09-17T06:19:03.182Z,12.57
2022-09-17T06:21:21.249Z,12.62
2022-09-17T06:23:35.825Z,12.67
2022-09-17T06:25:48.947Z,12.75
2022-09-17T06:28:23.027Z,12.82
2022-09-17T06:30:41.142Z,12.88
2022-09-17T06:32:59.181Z,12.96
2022-09-17T06:35:47.897Z,13.09
2022-09-17T06:38:05.957Z,13.22
2022-09-17T06:40:26.507Z,13.27
2022-09-17T06:42:41.141Z,13.33
2022-09-17T06:45:01.989Z,13.36
2022-09-17T06:47:13.680Z,13.40
2022-09-17T06:49:39.227Z,13.38
2022-09-17T06:51:51.985Z,13.33
2022-09-17T06:54:21.377Z,13.25
2022-09-17T06:56:39.466Z,13.20
2022-09-17T06:58:52.549Z,13.33
2022-09-17T07:01:10.406Z,13.36
2022-09-17T07:03:54.536Z,13.37
2022-09-17T07:06:12.230Z,13.40
2022-09-17T07:09:57.148Z,13.38
2022-09-17T07:12:10.813Z,13.33
2022-09-17T07:15:31.948Z,13.41
2022-09-17T07:17:47.506Z,13.46
2022-09-17T07:20:31.445Z,13.37
2022-09-17T07:22:47.574Z,13.33
2022-09-17T07:25:15.427Z,13.52
2022-09-17T07:27:33.520Z,13.52
2022-09-17T07:30:06.151Z,13.51
2022-09-17T07:32:22.754Z,13.58
2022-09-17T07:34:38.310Z,13.65
2022-09-17T07:37:28.026Z,13.94
2022-09-17T07:40:16.424Z,14.01
2022-09-17T07:43:32.627Z,14.10
2022-09-17T07:45:55.572Z,13.91
2022-09-17T07:48:13.693Z,13.89
2022-09-17T07:50:28.380Z,13.87
2022-09-17T07:53:03.656Z,14.01
2022-09-17T07:55:23.925Z,13.92
2022-09-17T07:57:47.119Z,13.91
2022-09-17T08:00:06.223Z,13.88
2022-09-17T08:02:24.160Z,14.12
2022-09-17T08:05:04.305Z,14.24
2022-09-17T08:07:20.107Z,14.34
2022-09-17T08:10:10.661Z,14.43
2022-09-17T08:12:37.845Z,14.32
2022-09-17T08:15:40.032Z,14.32
2022-09-17T08:17:56.694Z,14.56
2022-09-17T08:20:19.068Z,14.69
2022-09-17T08:22:50.317Z,14.56
2022-09-17T08:25:04.067Z,14.53
2022-09-17T08:27:19.635Z,14.67
2022-09-17T08:29:35.557Z,14.84
2022-09-17T08:32:11.162Z,14.87
2022-09-17T08:34:29.235Z,14.93
2022-09-17T08:36:48.074Z,14.98
2022-09-17T08:40:53.727Z,14.75
2022-09-17T08:43:14.308Z,14.69
2022-09-17T08:45:36.147Z,14.84
2022-09-17T08:47:54.261Z,14.80
2022-09-17T08:50:12.309Z,14.91
2022-09-17T08:52:30.404Z,15.06
2022-09-17T08:54:51.822Z,15.23
2022-09-17T08:57:18.023Z,15.24
2022-09-17T08:59:33.175Z,15.21
2022-09-17T09:02:04.930Z,15.41
2022-09-17T09:04:21.472Z,15.68
2022-09-17T09:07:46.637Z,15.60
2022-09-17T09:10:10.562Z,15.59
2022-09-17T09:12:23.543Z,15.64
2022-09-17T09:15:43.987Z,15.30
2022-09-17T09:18:40.503Z,15.11
2022-09-17T09:21:15.879Z,15.05
2022-09-17T09:24:43.852Z,15.30
2022-09-17T09:26:58.782Z,15.36
2022-09-17T09:30:14.735Z,15.66
2022-09-17T09:33:25.030Z,16.15
2022-09-17T09:37:01.854Z,16.92
2022-09-17T09:39:41.438Z,16.68
2022-09-17T09:42:07.647Z,16.35
2022-09-17T09:44:23.162Z,16.25
2022-09-17T09:47:01.559Z,16.25
2022-09-17T09:49:12.918Z,16.59
2022-09-17T09:51:30.925Z,16.90
2022-09-17T09:54:13.237Z,17.26
2022-09-17T09:56:45.652Z,17.70
2022-09-17T10:00:25.813Z,17.84
2022-09-17T10:02:59.984Z,17.35
2022-09-17T10:05:12.132Z,17.07
2022-09-17T10:07:38.791Z,16.92
2022-09-17T10:09:50.966Z,16.77
2022-09-17T10:12:03.037Z,16.50
2022-09-17T10:14:16.146Z,16.38
2022-09-17T10:16:31.344Z,16.63
2022-09-17T10:18:59.075Z,16.99
2022-09-17T10:21:11.100Z,16.68
2022-09-17T10:23:54.156Z,16.85
2022-09-17T10:26:06.272Z,16.65
2022-09-17T10:28:19.335Z,16.40
2022-09-17T10:30:32.445Z,15.96
2022-09-17T10:32:44.491Z,16.48
2022-09-17T10:34:57.575Z,16.65
2022-09-17T10:37:09.636Z,17.33
2022-09-17T10:39:22.708Z,17.63
2022-09-17T10:41:34.820Z,18.22
2022-09-17T10:43:46.877Z,18.62
2022-09-17T10:45:58.956Z,18.27
2022-09-17T10:48:11.082Z,17.54
2022-09-17T10:50:24.705Z,17.28
2022-09-17T10:52:36.826Z,17.43
2022-09-17T10:54:48.947Z,17.36
2022-09-17T10:57:03.070Z,17.74
2022-09-17T10:59:14.644Z,17.92
2022-09-17T11:01:28.096Z,17.47
2022-09-17T11:03:41.428Z,17.51
2022-09-17T11:05:54.490Z,17.44
2022-09-17T11:08:10.761Z,17.08
2022-09-17T11:10:24.902Z,16.75
2022-09-17T11:12:36.394Z,16.53
2022-09-17T11:14:48.481Z,16.42
2022-09-17T11:17:02.045Z,16.58
2022-09-17T11:19:14.112Z,16.90
2022-09-17T11:21:29.680Z,17.04
2022-09-17T11:23:43.385Z,17.20
2022-09-17T11:26:00.318Z,17.26
2022-09-17T11:28:33.742Z,17.18
2022-09-17T11:31:00.883Z,17.08
2022-09-17T11:33:12.917Z,16.98
2022-09-17T11:35:25.016Z,17.18
2022-09-17T11:37:37.095Z,17.44
2022-09-17T11:39:49.180Z,17.64
2022-09-17T11:42:06.366Z,17.41
2022-09-17T11:44:29.756Z,17.10
2022-09-17T11:53:33.401Z,15.96
2022-09-17T11:57:14.227Z,15.72
2022-09-17T12:00:25.821Z,15.43
2022-09-17T12:02:50.977Z,15.30
2022-09-17T12:05:28.653Z,15.23
2022-09-17T12:07:58.080Z,15.52
2022-09-17T12:10:13.333Z,15.88
2022-09-17T12:13:07.415Z,16.56
2022-09-17T12:15:53.097Z,16.78
2022-09-17T12:19:47.032Z,16.96
2022-09-17T12:24:42.713Z,16.92
2022-09-17T12:30:01.506Z,16.77
2022-09-17T12:32:43.939Z,16.48
2022-09-17T12:39:56.238Z,15.82
2022-09-17T12:42:11.648Z,15.85
2022-09-17T12:46:54.998Z,15.68
2022-09-17T12:53:25.399Z,15.74
2022-09-17T13:00:24.340Z,16.00
2022-09-17T13:06:20.935Z,16.31
2022-09-17T13:08:35.077Z,16.34
2022-09-17T13:11:15.509Z,16.42
2022-09-17T13:14:12.602Z,16.53
2022-09-17T13:17:22.324Z,16.63
2022-09-17T13:21:19.354Z,16.81
2022-09-17T13:31:05.443Z,17.32
2022-09-17T13:33:39.147Z,17.14
2022-09-17T13:41:31.187Z,16.38
2022-09-17T13:44:50.973Z,16.48
2022-09-17T13:49:37.527Z,16.74
2022-09-17T13:54:18.757Z,17.13
2022-09-17T13:57:05.075Z,17.13
2022-09-17T14:00:03.615Z,17.04
2022-09-17T14:02:47.632Z,16.67
2022-09-17T14:05:37.544Z,16.07
2022-09-17T14:10:46.195Z,15.33
2022-09-17T14:14:25.489Z,14.80
2022-09-17T14:16:51.633Z,14.84
2022-09-17T14:20:07.767Z,15.02
2022-09-17T14:22:22.905Z,15.20
2022-09-17T14:25:19.267Z,15.23
2022-09-17T14:27:30.848Z,15.23
2022-09-17T14:31:47.624Z,15.24
2022-09-17T14:35:10.930Z,15.24
2022-09-17T14:37:30.291Z,15.26
2022-09-17T14:39:52.689Z,15.28
2022-09-17T14:42:06.334Z,15.21
2022-09-17T14:44:47.473Z,15.12
2022-09-17T14:47:00.292Z,15.05
2022-09-17T14:49:46.715Z,14.93
2022-09-17T14:52:00.485Z,14.86
2022-09-17T14:55:49.314Z,14.78
2022-09-17T14:58:30.104Z,14.75
2022-09-17T15:00:47.342Z,14.71
2022-09-17T15:04:03.220Z,14.65
2022-09-17T15:06:27.071Z,14.65
2022-09-17T15:09:14.123Z,14.67
2022-09-17T15:14:06.168Z,14.71
2022-09-17T15:16:21.332Z,14.74
2022-09-17T15:19:05.279Z,14.87
2022-09-17T15:26:30.123Z,14.94
2022-09-17T15:28:55.942Z,14.60
2022-09-17T15:35:07.542Z,14.32
2022-09-17T15:37:26.190Z,14.31
2022-09-17T15:40:12.720Z,14.07
2022-09-17T15:43:14.875Z,13.89
2022-09-17T15:46:48.905Z,13.76
2022-09-17T15:49:46.107Z,13.63
2022-09-17T15:52:12.704Z,13.74
2022-09-17T15:54:35.662Z,13.91
2022-09-17T15:57:03.530Z,14.01
2022-09-17T15:59:27.524Z,13.95
2022-09-17T16:01:43.378Z,13.94
2022-09-17T16:05:19.272Z,13.69
2022-09-17T16:07:32.898Z,13.43
2022-09-17T16:11:03.816Z,13.11
2022-09-17T16:14:03.599Z,12.95
2022-09-17T16:16:21.235Z,12.85
2022-09-17T16:18:30.824Z,12.84
2022-09-17T16:21:00.193Z,12.84
2022-09-17T16:23:16.354Z,12.79
2022-09-17T16:25:40.583Z,12.75
2022-09-17T16:28:31.650Z,12.71
2022-09-17T16:31:08.065Z,12.70
2022-09-17T16:34:01.921Z,12.64
2022-09-17T16:36:17.480Z,12.59
2022-09-17T16:38:56.592Z,12.57
2022-09-17T16:41:27.048Z,12.51
2022-09-17T16:44:08.688Z,12.48
2022-09-17T16:46:24.527Z,12.45
2022-09-17T16:48:39.943Z,12.41
2022-09-17T16:50:55.889Z,12.41
2022-09-17T16:54:56.007Z,12.38
2022-09-17T16:57:47.848Z,12.34
2022-09-17T17:00:49.911Z,12.30
2022-09-17T17:03:19.305Z,12.21
2022-09-17T17:09:38.523Z,12.06
2022-09-17T17:11:53.711Z,12.05
2022-09-17T17:15:53.033Z,11.97
2022-09-17T17:18:43.552Z,11.86
2022-09-17T17:21:00.143Z,11.77
2022-09-17T17:23:12.202Z,11.70
2022-09-17T17:25:24.279Z,11.62
2022-09-17T17:27:36.413Z,11.54
2022-09-17T17:29:48.454Z,11.49
2022-09-17T17:32:00.616Z,11.41
2022-09-17T17:34:12.595Z,11.36
2022-09-17T17:36:26.183Z,11.32
2022-09-17T17:38:39.773Z,11.28
2022-09-17T17:40:53.347Z,11.17
2022-09-17T17:43:05.461Z,11.13
2022-09-17T17:45:17.517Z,11.06
2022-09-17T17:47:29.595Z,10.99
2022-09-17T17:49:41.683Z,10.94
2022-09-17T17:51:53.765Z,10.89
2022-09-17T17:54:12.802Z,10.86
2022-09-17T17:56:26.411Z,10.84
2022-09-17T17:58:39.989Z,10.81
2022-09-17T18:00:53.080Z,10.81
2022-09-17T18:03:06.191Z,10.84
2022-09-17T18:05:18.251Z,10.89
2022-09-17T18:07:31.304Z,10.94
2022-09-17T18:09:43.387Z,10.96
2022-09-17T18:11:56.455Z,10.99
2022-09-17T18:14:08.533Z,10.99
2022-09-17T18:16:20.687Z,10.98
2022-09-17T18:18:34.191Z,10.98
2022-09-17T18:20:46.260Z,10.99
2022-09-17T18:22:58.358Z,10.98
2022-09-17T18:25:11.261Z,10.95
2022-09-17T18:27:24.017Z,10.91
2022-09-17T18:29:36.084Z,10.89
2022-09-17T18:31:50.228Z,10.83
2022-09-17T18:34:03.232Z,10.81
2022-09-17T18:36:18.397Z,10.80
2022-09-17T18:38:29.918Z,10.74
2022-09-17T18:40:42.028Z,10.71
2022-09-17T18:42:54.079Z,10.68
2022-09-17T18:45:08.680Z,10.63
2022-09-17T18:47:26.781Z,10.60
2022-09-17T18:49:52.955Z,10.59
2022-09-17T18:52:08.432Z,10.59
2022-09-17T18:54:24.137Z,10.60
2022-09-17T18:56:37.000Z,10.60
2022-09-17T18:59:48.852Z,10.60
2022-09-17T19:02:05.186Z,10.60
2022-09-17T19:04:13.013Z,10.56
2022-09-17T19:06:25.116Z,10.56
2022-09-17T19:08:37.164Z,10.56
2022-09-17T19:10:50.762Z,10.55
2022-09-17T19:13:02.860Z,10.56
2022-09-17T19:15:14.948Z,10.55
2022-09-17T19:17:47.156Z,10.56
2022-09-17T19:20:00.057Z,10.59
2022-09-17T19:22:15.846Z,10.60
2022-09-17T19:24:29.458Z,10.62
2022-09-17T19:26:42.535Z,10.63
2022-09-17T19:28:54.650Z,10.66
2022-09-17T19:31:09.227Z,10.70
2022-09-17T19:33:22.765Z,10.71
2022-09-17T19:35:34.855Z,10.73
2022-09-17T19:37:46.924Z,10.73
2022-09-17T19:40:03.325Z,10.74
2022-09-17T19:42:15.371Z,10.76
2022-09-17T19:44:27.457Z,10.77
2022-09-17T19:46:39.595Z,10.81
2022-09-17T19:48:52.604Z,10.83
2022-09-17T19:51:24.307Z,10.83
2022-09-17T19:53:52.246Z,10.88
2022-09-17T20:05:48.639Z,10.88
2022-09-17T20:08:02.977Z,10.88
2022-09-17T20:10:14.661Z,10.89
2022-09-17T20:12:26.744Z,10.91
2022-09-17T20:14:46.421Z,10.92
2022-09-17T20:17:00.165Z,10.91
2022-09-17T20:19:22.033Z,10.92
2022-09-17T20:21:33.625Z,10.96
2022-09-17T20:23:48.790Z,10.95
2022-09-17T20:25:59.305Z,10.95
2022-09-17T20:28:13.238Z,10.98
2022-09-17T20:30:26.425Z,10.99
2022-09-17T20:32:37.543Z,11.01
2022-09-17T20:34:49.633Z,11.01
2022-09-17T20:37:12.558Z,11.01
2022-09-17T20:39:22.243Z,11.01
2022-09-17T20:41:13.754Z,11.03
2022-09-17T20:43:25.829Z,11.03
2022-09-17T20:45:37.910Z,11.03
2022-09-17T20:47:50.991Z,11.02
2022-09-17T20:50:03.102Z,11.02
2022-09-17T20:52:20.466Z,11.01
2022-09-17T20:54:28.225Z,10.98
2022-09-17T20:56:40.882Z,10.99
2022-09-17T20:58:52.398Z,10.98
2022-09-17T21:01:04.495Z,10.98
2022-09-17T21:03:17.637Z,10.95
2022-09-17T21:05:41.656Z,10.89
2022-09-17T21:06:40.643Z,10.84
2022-09-17T21:08:58.797Z,10.81
2022-09-17T21:11:11.881Z,10.78
2022-09-17T21:13:24.264Z,10.76
2022-09-17T21:15:40.102Z,10.71
2022-09-17T21:17:52.167Z,10.63
2022-09-17T21:20:04.226Z,10.63
2022-09-17T21:22:16.593Z,10.60
2022-09-17T21:24:28.683Z,10.60
2022-09-17T21:26:41.763Z,10.58
2022-09-17T21:28:53.868Z,10.59
2022-09-17T21:31:05.957Z,10.55
2022-09-17T21:33:19.011Z,10.58
2022-09-17T21:35:31.412Z,10.58
2022-09-17T21:37:43.472Z,10.55
2022-09-17T21:39:55.638Z,10.59
2022-09-17T21:42:07.636Z,10.62
2022-09-17T21:44:19.715Z,10.62
2022-09-17T21:46:32.812Z,10.65
2022-09-17T21:48:44.876Z,10.70
2022-09-17T21:50:56.987Z,10.73
2022-09-17T21:53:09.027Z,10.77
2022-09-17T21:55:23.209Z,10.81
2022-09-17T21:57:34.684Z,10.86
2022-09-17T21:59:46.755Z,10.89
2022-09-17T22:01:58.950Z,10.92
2022-09-17T22:04:10.918Z,10.94
2022-09-17T22:06:23.011Z,10.96
2022-09-17T22:08:37.191Z,11.01
2022-09-17T22:10:52.366Z,11.02
2022-09-17T22:13:05.464Z,11.06
2022-09-17T22:15:17.533Z,11.09
2022-09-17T22:17:30.244Z,11.11
2022-09-17T22:19:43.309Z,11.11
2022-09-17T22:21:56.381Z,11.13
2022-09-17T22:24:09.483Z,11.16
2022-09-17T22:26:22.522Z,11.17
2022-09-17T22:28:34.589Z,11.20
2022-09-17T22:30:46.755Z,11.21
2022-09-17T22:33:00.845Z,11.24
2022-09-17T22:35:12.356Z,11.28
2022-09-17T22:37:24.414Z,11.27
2022-09-17T22:39:37.489Z,11.29
2022-09-17T22:41:49.554Z,11.28
2022-09-17T22:44:02.642Z,11.29
2022-09-17T22:46:15.918Z,11.31
2022-09-17T22:48:27.792Z,11.32
2022-09-17T22:50:39.877Z,11.35
2022-09-17T22:52:51.959Z,11.36
2022-09-17T22:55:07.652Z,11.38
2022-09-17T22:57:21.591Z,11.36
2022-09-17T22:59:36.108Z,11.38
2022-09-17T23:01:51.329Z,11.39
2022-09-17T23:04:04.411Z,11.39
2022-09-17T23:06:51.819Z,11.43
2022-09-17T23:09:04.497Z,11.44
2022-09-17T23:12:04.125Z,11.43
2022-09-17T23:14:32.580Z,11.43
2022-09-17T23:17:35.029Z,11.43
2022-09-17T23:21:24.875Z,11.41
2022-09-17T23:23:36.989Z,11.41
2022-09-17T23:25:50.344Z,11.39
2022-09-17T23:28:35.245Z,11.39
2022-09-17T23:30:48.982Z,11.41
2022-09-17T23:33:14.158Z,11.39
2022-09-17T23:34:14.126Z,11.39
2022-09-17T23:36:29.253Z,11.39
2022-09-17T23:38:48.851Z,11.38
2022-09-17T23:41:00.942Z,11.35
2022-09-17T23:43:18.085Z,11.31
2022-09-17T23:45:29.904Z,11.25
2022-09-17T23:47:42.998Z,11.19
2022-09-17T23:49:56.681Z,11.19
2022-09-17T23:52:08.667Z,11.14
2022-09-17T23:54:37.473Z,11.13
2022-09-17T23:56:51.403Z,11.11
2022-09-17T23:59:03.639Z,11.06
